»·PEaware :: AAL2323 CYYZ-KLAX

AAL2323 :: CYYZ-KLAX

FLIGHT INFORMATION

Flight Status: Arrived
Operator:
American Airlines
More flights by this operator :: More flights under this callsign
Pilot: Henderson P. (1210)
Aircraft: AIRBUS A319
(A319)
More flights by this aircraft type
Origin: CYYZ Toronto/Pearson Intl
Canada
Destination: KLAX Los Angeles Intl
United States
More flights between these airports :: More routes between these airports
Route: +GOPUP3 SLLAP BAE KP81I KP81G KP81E KD78A KD75Y KD69W EKR KD60S HVE PROMT Q88 HAKMN ANJLL4
File this flight plan on PilotEdge
Remarks:
Altitude:
(Current/Filed)
36,000ft
Speed:
(Current/Filed)
458kts
Departed: 08-Nov-18 05:03 PM
Arrived: 08-Nov-18 08:42 PM
Distance/Time
Traveled:
1885nm/3:39
Distance/Time
To Go:
Arrived

Flight Plot

Page will automatically refresh every two minutes.

Flight plan parsing failed; only flown route is shown


Map Options




Map Legend


Flown Route
Filed Route
Departure Airport
Arrival Airport
Navaid (VOR, NDB)
Fix

Horizontal Profiles

Position Reports

Time Latitude Longitude Heading Altitude Ground
Speed
08-Nov-18 17:05 43.347402 -90.370875 272 35412ft 373kts
08-Nov-18 17:06 43.363922 -90.535538 272 35440ft 373kts
08-Nov-18 17:07 43.375587 -90.653428 272 35438ft 373kts
08-Nov-18 17:08 43.389437 -90.795130 272 35431ft 373kts
08-Nov-18 17:09 43.403130 -90.936807 272 35421ft 373kts
08-Nov-18 17:10 43.416571 -91.078017 272 35420ft 372kts
08-Nov-18 17:11 43.429860 -91.219318 272 35371ft 373kts
08-Nov-18 17:12 43.443027 -91.361469 272 35343ft 374kts
08-Nov-18 17:13 43.456039 -91.503632 272 35340ft 375kts
08-Nov-18 17:14 43.468866 -91.645876 272 35332ft 375kts
08-Nov-18 17:15 43.481563 -91.788999 272 35348ft 376kts
08-Nov-18 17:16 43.494172 -91.932587 272 35369ft 377kts
08-Nov-18 17:17 43.500854 -92.076182 266 35359ft 375kts
08-Nov-18 17:18 43.501683 -92.219644 267 35421ft 375kts
08-Nov-18 17:19 43.502580 -92.363679 266 35422ft 376kts
08-Nov-18 17:20 43.503296 -92.507493 266 35423ft 376kts
08-Nov-18 17:21 43.503828 -92.651853 266 35423ft 375kts
08-Nov-18 17:22 43.504167 -92.795346 266 35418ft 375kts
08-Nov-18 17:23 43.504339 -92.938968 266 35398ft 375kts
08-Nov-18 17:24 43.504324 -93.083473 266 35368ft 376kts
08-Nov-18 17:25 43.504121 -93.227282 266 35339ft 377kts
08-Nov-18 17:26 43.503766 -93.371904 266 35350ft 379kts
08-Nov-18 17:27 43.503196 -93.517588 266 35407ft 379kts
08-Nov-18 17:28 43.502424 -93.663120 266 35406ft 381kts
08-Nov-18 17:29 43.501493 -93.809895 266 35421ft 383kts
08-Nov-18 17:30 43.500363 -93.956873 266 35425ft 384kts
08-Nov-18 17:31 43.500856 -94.104272 267 35411ft 385kts
08-Nov-18 17:32 43.501920 -94.251825 267 35422ft 385kts
08-Nov-18 17:33 43.502782 -94.399433 267 35687ft 384kts
08-Nov-18 17:34 43.503463 -94.546548 267 35918ft 384kts
08-Nov-18 17:35 43.503942 -94.693326 267 36117ft 383kts
08-Nov-18 17:36 43.504260 -94.840363 267 36200ft 384kts
08-Nov-18 17:37 43.504359 -94.987212 267 36309ft 384kts
08-Nov-18 17:38 43.504281 -95.134768 267 36418ft 384kts
08-Nov-18 17:39 43.503998 -95.281681 267 36527ft 384kts
08-Nov-18 17:40 43.503546 -95.428993 267 36528ft 387kts
08-Nov-18 17:41 43.502911 -95.578653 267 36380ft 391kts
08-Nov-18 17:42 43.502047 -95.728850 267 36383ft 390kts
08-Nov-18 17:43 43.500998 -95.878061 267 36366ft 391kts
08-Nov-18 17:44 43.497251 -96.027892 261 36361ft 390kts
08-Nov-18 17:45 43.480969 -96.176018 260 36352ft 391kts
08-Nov-18 17:46 43.464920 -96.324426 260 36380ft 391kts
08-Nov-18 17:47 43.448590 -96.472474 260 36390ft 392kts
08-Nov-18 17:48 43.432006 -96.620920 260 36420ft 392kts
08-Nov-18 17:49 43.415341 -96.768753 260 36428ft 392kts
08-Nov-18 17:50 43.398378 -96.917082 260 36438ft 392kts
08-Nov-18 17:51 43.381210 -97.065429 260 36441ft 393kts
08-Nov-18 17:52 43.363825 -97.213969 260 36448ft 393kts
08-Nov-18 17:53 43.346196 -97.362743 260 36448ft 394kts
08-Nov-18 17:54 43.328446 -97.511214 260 36453ft 395kts
08-Nov-18 17:55 43.310298 -97.660746 260 36451ft 396kts
08-Nov-18 17:56 43.292073 -97.809567 260 36451ft 396kts
08-Nov-18 17:57 43.273531 -97.959320 260 36454ft 397kts
08-Nov-18 17:58 43.254839 -98.108580 260 36438ft 397kts
08-Nov-18 17:59 43.235940 -98.257750 260 36431ft 397kts
08-Nov-18 18:00 43.216829 -98.406925 260 36436ft 397kts
08-Nov-18 18:01 43.197475 -98.556436 260 36444ft 397kts
08-Nov-18 18:02 43.177973 -98.705551 260 36427ft 398kts
08-Nov-18 18:03 43.158332 -98.854357 260 36424ft 397kts
08-Nov-18 18:04 43.138432 -99.003338 260 36415ft 398kts
08-Nov-18 18:05 43.118305 -99.152416 260 36418ft 398kts
08-Nov-18 18:06 43.097952 -99.301736 261 36397ft 399kts
08-Nov-18 18:07 43.077446 -99.450755 260 36399ft 399kts
08-Nov-18 18:08 43.056715 -99.599687 260 36391ft 399kts
08-Nov-18 18:09 43.035770 -99.748716 260 36389ft 399kts
08-Nov-18 18:10 43.014638 -99.897729 260 36383ft 399kts
08-Nov-18 18:11 42.989475 -100.045412 255 36371ft 401kts
08-Nov-18 18:12 42.954119 -100.190524 255 36304ft 403kts
08-Nov-18 18:13 42.919038 -100.335892 255 36306ft 403kts
08-Nov-18 18:14 42.883647 -100.481021 255 36313ft 403kts
08-Nov-18 18:15 42.848147 -100.625778 255 36309ft 403kts
08-Nov-18 18:16 42.812445 -100.770525 255 36321ft 403kts
08-Nov-18 18:17 42.776449 -100.915453 255 36295ft 405kts
08-Nov-18 18:18 42.740208 -101.060539 255 36306ft 405kts
08-Nov-18 18:19 42.703676 -101.205844 255 36317ft 405kts
08-Nov-18 18:20 42.666987 -101.350822 255 36336ft 405kts
08-Nov-18 18:21 42.630181 -101.495476 255 36332ft 406kts
08-Nov-18 18:22 42.592974 -101.640774 255 36322ft 406kts
08-Nov-18 18:23 42.555694 -101.785473 255 36321ft 406kts
08-Nov-18 18:24 42.518296 -101.929692 255 36313ft 405kts
08-Nov-18 18:25 42.468290 -102.067261 242 36297ft 414kts
08-Nov-18 18:26 42.404069 -102.197186 243 36260ft 415kts
08-Nov-18 18:27 42.340504 -102.327953 242 36276ft 415kts
08-Nov-18 18:28 42.276759 -102.458044 242 36269ft 416kts
08-Nov-18 18:29 42.212627 -102.588303 242 36270ft 417kts
08-Nov-18 18:30 42.148288 -102.718541 242 36237ft 418kts
08-Nov-18 18:31 42.083571 -102.848847 242 36237ft 419kts
08-Nov-18 18:32 42.018316 -102.979823 242 36237ft 420kts
08-Nov-18 18:33 41.952979 -103.110270 242 36271ft 421kts
08-Nov-18 18:34 41.887527 -103.240485 242 36335ft 421kts
08-Nov-18 18:35 41.821773 -103.370629 242 36343ft 420kts
08-Nov-18 18:36 41.756054 -103.500250 242 36316ft 421kts
08-Nov-18 18:37 41.689811 -103.630269 242 36308ft 422kts
08-Nov-18 18:38 41.623404 -103.760122 242 36299ft 424kts
08-Nov-18 18:39 41.556643 -103.890015 242 36331ft 424kts
08-Nov-18 18:40 41.492424 -104.021310 250 36325ft 417kts
08-Nov-18 18:41 41.444887 -104.161887 251 36275ft 417kts
08-Nov-18 18:42 41.396265 -104.302683 251 36286ft 417kts
08-Nov-18 18:43 41.348044 -104.442745 251 36305ft 417kts
08-Nov-18 18:44 41.299223 -104.583491 251 36298ft 418kts
08-Nov-18 18:45 41.250288 -104.723922 251 36296ft 418kts
08-Nov-18 18:46 41.201306 -104.863719 250 36296ft 418kts
08-Nov-18 18:47 41.152092 -105.003615 250 36295ft 418kts
08-Nov-18 18:48 41.102611 -105.143505 250 36277ft 419kts
08-Nov-18 18:49 41.052801 -105.283741 250 36240ft 421kts
08-Nov-18 18:50 41.002790 -105.423665 250 36268ft 420kts
08-Nov-18 18:51 40.952500 -105.563735 250 36290ft 421kts
08-Nov-18 18:52 40.902243 -105.703124 250 36275ft 421kts
08-Nov-18 18:53 40.851547 -105.843027 249 36255ft 421kts
08-Nov-18 18:54 40.800828 -105.982235 250 36283ft 421kts
08-Nov-18 18:55 40.749563 -106.122232 250 36278ft 426kts
08-Nov-18 18:56 40.697763 -106.263191 249 36353ft 428kts
08-Nov-18 18:57 40.645840 -106.403621 249 36381ft 427kts
08-Nov-18 18:58 40.593674 -106.544076 249 36403ft 425kts
08-Nov-18 18:59 40.541816 -106.683072 249 36385ft 424kts
08-Nov-18 19:00 40.489601 -106.822381 249 36334ft 426kts
08-Nov-18 19:01 40.436977 -106.962062 249 36398ft 426kts
08-Nov-18 19:02 40.384111 -107.101657 249 36432ft 428kts
08-Nov-18 19:03 40.330846 -107.241815 249 36435ft 429kts
08-Nov-18 19:04 40.277654 -107.380984 249 36746ft 427kts
08-Nov-18 19:05 40.224410 -107.519654 248 37075ft 426kts
08-Nov-18 19:06 40.171135 -107.657852 248 37298ft 425kts
08-Nov-18 19:07 40.117529 -107.796145 248 37455ft 425kts
08-Nov-18 19:08 40.072068 -107.909520 242 37753ft 424kts
08-Nov-18 19:09 39.988648 -108.019695 237 38261ft 417kts
08-Nov-18 19:10 39.921008 -108.140750 240 38409ft 412kts
08-Nov-18 19:11 39.852338 -108.261347 240 38412ft 414kts
08-Nov-18 19:12 39.783906 -108.382199 239 38419ft 416kts
08-Nov-18 19:13 39.703380 -108.523428 239 38420ft 418kts
08-Nov-18 19:14 39.645454 -108.624636 239 38418ft 419kts
08-Nov-18 19:15 39.575607 -108.746341 239 38412ft 420kts
08-Nov-18 19:16 39.505443 -108.868026 239 38362ft 422kts
08-Nov-18 19:17 39.435039 -108.989722 239 38359ft 422kts
08-Nov-18 19:18 39.364396 -109.111320 239 38361ft 422kts
08-Nov-18 19:19 39.293854 -109.232325 239 38358ft 422kts
08-Nov-18 19:20 39.222868 -109.353586 239 38354ft 423kts
08-Nov-18 19:21 39.151994 -109.474278 239 38355ft 423kts
08-Nov-18 19:22 39.080833 -109.594926 238 38351ft 422kts
08-Nov-18 19:23 39.009669 -109.715171 238 38346ft 422kts
08-Nov-18 19:24 38.938420 -109.835079 238 38348ft 422kts
08-Nov-18 19:25 38.866951 -109.954890 238 38362ft 421kts
08-Nov-18 19:26 38.795671 -110.074000 238 38360ft 421kts
08-Nov-18 19:27 38.724233 -110.192868 238 38358ft 421kts
08-Nov-18 19:28 38.652880 -110.311216 238 38375ft 420kts
08-Nov-18 19:29 38.581418 -110.429267 238 38391ft 419kts
08-Nov-18 19:30 38.509835 -110.547115 238 38384ft 419kts
08-Nov-18 19:31 38.438245 -110.664562 238 38386ft 419kts
08-Nov-18 19:32 38.359130 -110.775091 231 38398ft 425kts
08-Nov-18 19:33 38.276253 -110.882340 232 38398ft 425kts
08-Nov-18 19:34 38.193425 -110.989502 231 38395ft 426kts
08-Nov-18 19:35 38.110139 -111.096883 231 38397ft 426kts
08-Nov-18 19:36 38.026660 -111.204176 231 38399ft 427kts
08-Nov-18 19:37 37.943162 -111.311044 231 38425ft 424kts
08-Nov-18 19:38 37.860044 -111.417153 231 38482ft 423kts
08-Nov-18 19:39 37.777042 -111.522692 231 38472ft 423kts
08-Nov-18 19:40 37.694014 -111.627961 231 38464ft 424kts
08-Nov-18 19:41 37.610570 -111.733355 231 38463ft 424kts
08-Nov-18 19:42 37.526807 -111.838847 230 38448ft 426kts
08-Nov-18 19:43 37.452865 -111.953453 239 38465ft 420kts
08-Nov-18 19:44 37.383816 -112.071841 238 38461ft 422kts
08-Nov-18 19:45 37.314137 -112.190753 239 38460ft 422kts
08-Nov-18 19:46 37.244308 -112.309413 238 38459ft 422kts
08-Nov-18 19:47 37.174640 -112.427543 238 38454ft 422kts
08-Nov-18 19:48 37.104762 -112.545526 238 38448ft 420kts
08-Nov-18 19:49 37.034830 -112.663209 238 38441ft 420kts
08-Nov-18 19:50 36.965224 -112.780119 238 38436ft 419kts
08-Nov-18 19:51 36.895569 -112.896675 238 38432ft 418kts
08-Nov-18 19:52 36.825898 -113.012833 238 38443ft 418kts
08-Nov-18 19:53 36.756048 -113.128943 238 38434ft 418kts
08-Nov-18 19:54 36.685837 -113.245157 238 38428ft 418kts
08-Nov-18 19:55 36.616414 -113.360787 239 38424ft 417kts
08-Nov-18 19:56 36.549510 -113.478855 240 38418ft 417kts
08-Nov-18 19:57 36.482534 -113.596427 240 38410ft 417kts
08-Nov-18 19:58 36.415514 -113.713781 240 38386ft 416kts
08-Nov-18 19:59 36.348400 -113.830850 239 38380ft 415kts
08-Nov-18 20:00 36.281338 -113.947511 240 38383ft 415kts
08-Nov-18 20:01 36.214070 -114.064031 239 38360ft 415kts
08-Nov-18 20:02 36.146920 -114.180042 239 38361ft 415kts
08-Nov-18 20:03 36.078565 -114.295448 235 38362ft 419kts
08-Nov-18 20:04 36.000655 -114.403274 234 38362ft 420kts
08-Nov-18 20:05 35.922776 -114.511148 234 38338ft 420kts
08-Nov-18 20:06 35.844777 -114.618576 234 38339ft 420kts
08-Nov-18 20:07 35.766848 -114.725583 234 38342ft 420kts
08-Nov-18 20:08 35.688543 -114.832794 234 38337ft 421kts
08-Nov-18 20:09 35.610199 -114.939965 234 38345ft 421kts
08-Nov-18 20:10 35.531922 -115.046813 234 38337ft 418kts
08-Nov-18 20:11 35.452916 -115.151523 233 38289ft 417kts
08-Nov-18 20:12 35.373166 -115.255587 233 38238ft 420kts
08-Nov-18 20:13 35.293025 -115.359847 233 38328ft 421kts
08-Nov-18 20:14 35.212319 -115.464455 232 38326ft 422kts
08-Nov-18 20:15 35.131897 -115.568403 232 38332ft 422kts
08-Nov-18 20:16 35.050827 -115.672266 232 38338ft 421kts
08-Nov-18 20:17 34.970194 -115.775135 232 38344ft 420kts
08-Nov-18 20:18 34.889413 -115.877904 232 38344ft 419kts
08-Nov-18 20:19 34.808584 -115.980347 232 38325ft 419kts
08-Nov-18 20:20 34.728123 -116.082560 232 38307ft 419kts
08-Nov-18 20:21 34.647127 -116.185719 232 38269ft 423kts
08-Nov-18 20:22 34.565923 -116.288630 232 38058ft 418kts
08-Nov-18 20:23 34.485317 -116.390623 232 35705ft 419kts
08-Nov-18 20:24 34.408724 -116.496036 245 32890ft 409kts
08-Nov-18 20:25 34.362527 -116.609464 247 30309ft 406kts
08-Nov-18 20:26 34.312452 -116.730771 248 27465ft 398kts
08-Nov-18 20:27 34.264883 -116.850022 247 24701ft 387kts
08-Nov-18 20:28 34.219395 -116.962265 248 22794ft 361kts
08-Nov-18 20:29 34.186570 -117.073666 255 20520ft 352kts
08-Nov-18 20:30 34.156171 -117.185804 255 18340ft 350kts
08-Nov-18 20:31 34.128887 -117.284779 254 16395ft 345kts
08-Nov-18 20:32 34.099352 -117.393604 256 14706ft 342kts
08-Nov-18 20:33 34.071821 -117.502032 251 13179ft 330kts
08-Nov-18 20:34 34.035734 -117.602501 247 11414ft 328kts
08-Nov-18 20:35 34.005008 -117.697526 261 10133ft 305kts
08-Nov-18 20:36 33.996686 -117.788384 263 8545ft 298kts
08-Nov-18 20:37 33.986953 -117.886997 263 7030ft 286kts
08-Nov-18 20:38 33.979959 -117.957633 264 6547ft 242kts
08-Nov-18 20:39 33.972081 -118.037779 264 5054ft 242kts
08-Nov-18 20:40 33.964144 -118.117453 265 4665ft 236kts
08-Nov-18 20:41 33.957274 -118.188756 266 3360ft 232kts
08-Nov-18 20:42 33.949509 -118.263842 264 2154ft 205kts
08-Nov-18 20:43 33.943736 -118.320483 263 1209ft 144kts
08-Nov-18 20:44 33.939143 -118.365407 263 456ft 135kts
08-Nov-18 20:45 33.935434 -118.402095 265 140ft 36kts
08-Nov-18 20:46 33.936932 -118.409097 350 140ft 8kts
08-Nov-18 20:47 33.937826 -118.409239 354 140ft 0kts
08-Nov-18 20:48 33.938561 -118.409263 32 140ft 5kts
08-Nov-18 20:49 33.938877 -118.406982 82 140ft 8kts
08-Nov-18 20:50 33.940238 -118.405631 354 140ft 7kts
08-Nov-18 20:51 33.941028 -118.405119 83 140ft 1kts
08-Nov-18 20:52 33.941033 -118.405078 83 140ft 0kts
08-Nov-18 20:53 33.941033 -118.405078 83 140ft 0kts
08-Nov-18 20:54 33.941033 -118.405078 83 140ft 0kts
08-Nov-18 20:55 33.941033 -118.405078 83 140ft 0kts
08-Nov-18 20:56 33.941033 -118.405078 83 140ft 0kts
08-Nov-18 20:57 33.941033 -118.405078 83 140ft 0kts

Navigation Log

Ident Type
Flight plan parsing failed, navigation log unavailable